sensor_id;sensor_type;location;lat;lon;timestamp;pressure;altitude;pressure_sealevel;temperature;humidity
55540;BME280;41384;51.418;7.286;2023-05-24T00:00:19;100595.28;;;11.43;62.05
55540;BME280;41384;51.418;7.286;2023-05-24T00:02:46;100601.06;;;11.25;62.98
55540;BME280;41384;51.418;7.286;2023-05-24T00:05:12;100607.13;;;10.97;63.89
55540;BME280;41384;51.418;7.286;2023-05-24T00:07:38;100599.72;;;11.07;63.85
55540;BME280;41384;51.418;7.286;2023-05-24T00:10:04;100603.34;;;11.28;63.24
55540;BME280;41384;51.418;7.286;2023-05-24T00:12:30;100603.22;;;11.43;62.24
55540;BME280;41384;51.418;7.286;2023-05-24T00:14:56;100611.25;;;11.28;63.49
55540;BME280;41384;51.418;7.286;2023-05-24T00:17:21;100607.31;;;11.17;64.05
55540;BME280;41384;51.418;7.286;2023-05-24T00:19:46;100604.47;;;10.97;65.26
55540;BME280;41384;51.418;7.286;2023-05-24T00:22:12;100600.19;;;10.96;65.46
55540;BME280;41384;51.418;7.286;2023-05-24T00:24:38;100602.59;;;11.13;64.99
55540;BME280;41384;51.418;7.286;2023-05-24T00:27:03;100598.38;;;10.97;64.33
55540;BME280;41384;51.418;7.286;2023-05-24T00:29:29;100594.00;;;10.82;65.26
55540;BME280;41384;51.418;7.286;2023-05-24T00:31:54;100595.78;;;10.60;67.55
55540;BME280;41384;51.418;7.286;2023-05-24T00:34:20;100584.22;;;10.61;67.14
55540;BME280;41384;51.418;7.286;2023-05-24T00:36:45;100588.91;;;10.44;67.70
55540;BME280;41384;51.418;7.286;2023-05-24T00:39:10;100589.94;;;10.28;68.99
55540;BME280;41384;51.418;7.286;2023-05-24T00:41:36;100587.94;;;10.30;68.08
55540;BME280;41384;51.418;7.286;2023-05-24T00:44:01;100585.56;;;10.20;69.54
55540;BME280;41384;51.418;7.286;2023-05-24T00:46:29;100586.69;;;9.96;70.52
55540;BME280;41384;51.418;7.286;2023-05-24T00:48:54;100584.69;;;10.13;70.08
55540;BME280;41384;51.418;7.286;2023-05-24T00:51:21;100581.81;;;10.29;68.56
55540;BME280;41384;51.418;7.286;2023-05-24T00:53:47;100579.19;;;10.14;69.96
55540;BME280;41384;51.418;7.286;2023-05-24T00:56:14;100585.94;;;10.02;70.85
55540;BME280;41384;51.418;7.286;2023-05-24T00:58:40;100592.88;;;9.88;71.95
55540;BME280;41384;51.418;7.286;2023-05-24T01:01:05;100587.88;;;9.93;71.42
55540;BME280;41384;51.418;7.286;2023-05-24T01:03:31;100585.97;;;9.87;72.18
55540;BME280;41384;51.418;7.286;2023-05-24T01:05:59;100578.78;;;9.96;72.24
55540;BME280;41384;51.418;7.286;2023-05-24T01:16:54;100571.31;;;9.54;73.02
55540;BME280;41384;51.418;7.286;2023-05-24T01:25:52;100571.41;;;9.46;73.12
55540;BME280;41384;51.418;7.286;2023-05-24T01:28:19;100564.16;;;9.93;72.28
55540;BME280;41384;51.418;7.286;2023-05-24T01:30:46;100564.16;;;9.78;72.58
55540;BME280;41384;51.418;7.286;2023-05-24T01:33:12;100568.59;;;9.47;73.60
55540;BME280;41384;51.418;7.286;2023-05-24T01:35:37;100571.84;;;9.34;74.59
55540;BME280;41384;51.418;7.286;2023-05-24T01:38:05;100570.69;;;9.82;72.88
55540;BME280;41384;51.418;7.286;2023-05-24T01:40:32;100572.31;;;9.68;73.50
55540;BME280;41384;51.418;7.286;2023-05-24T01:43:09;100566.59;;;9.64;74.83
55540;BME280;41384;51.418;7.286;2023-05-24T01:51:46;100549.78;;;9.51;74.83
55540;BME280;41384;51.418;7.286;2023-05-24T01:54:12;100548.78;;;9.82;72.75
55540;BME280;41384;51.418;7.286;2023-05-24T01:56:39;100550.50;;;9.59;74.15
55540;BME280;41384;51.418;7.286;2023-05-24T01:59:06;100548.50;;;9.31;75.92
55540;BME280;41384;51.418;7.286;2023-05-24T02:01:31;100545.88;;;9.31;74.79
55540;BME280;41384;51.418;7.286;2023-05-24T02:03:58;100548.50;;;9.61;75.09
55540;BME280;41384;51.418;7.286;2023-05-24T02:06:23;100537.34;;;9.74;73.43
55540;BME280;41384;51.418;7.286;2023-05-24T02:08:48;100537.78;;;9.48;74.56
55540;BME280;41384;51.418;7.286;2023-05-24T02:11:13;100538.00;;;9.23;75.48
55540;BME280;41384;51.418;7.286;2023-05-24T02:13:39;100538.25;;;8.98;77.41
55540;BME280;41384;51.418;7.286;2023-05-24T02:16:04;100545.28;;;9.06;77.87
55540;BME280;41384;51.418;7.286;2023-05-24T02:18:31;100542.28;;;9.09;78.31
55540;BME280;41384;51.418;7.286;2023-05-24T02:20:59;100542.78;;;9.04;77.27
55540;BME280;41384;51.418;7.286;2023-05-24T02:23:25;100547.63;;;9.16;76.72
55540;BME280;41384;51.418;7.286;2023-05-24T02:25:50;100545.22;;;9.29;77.95
55540;BME280;41384;51.418;7.286;2023-05-24T02:28:15;100539.28;;;9.27;77.63
55540;BME280;41384;51.418;7.286;2023-05-24T02:30:40;100540.97;;;9.43;77.51
55540;BME280;41384;51.418;7.286;2023-05-24T02:33:08;100540.84;;;9.22;77.57
55540;BME280;41384;51.418;7.286;2023-05-24T02:35:34;100543.13;;;9.25;76.45
55540;BME280;41384;51.418;7.286;2023-05-24T02:37:59;100541.47;;;9.24;76.64
55540;BME280;41384;51.418;7.286;2023-05-24T02:40:26;100539.97;;;9.29;76.84
55540;BME280;41384;51.418;7.286;2023-05-24T02:42:51;100536.75;;;8.81;79.71
55540;BME280;41384;51.418;7.286;2023-05-24T02:45:17;100529.00;;;9.02;78.07
55540;BME280;41384;51.418;7.286;2023-05-24T02:47:42;100527.84;;;8.58;80.40
55540;BME280;41384;51.418;7.286;2023-05-24T02:50:07;100531.53;;;8.72;80.08
55540;BME280;41384;51.418;7.286;2023-05-24T02:52:33;100525.38;;;8.80;80.18
55540;BME280;41384;51.418;7.286;2023-05-24T02:54:58;100525.38;;;9.03;78.71
55540;BME280;41384;51.418;7.286;2023-05-24T02:57:23;100532.38;;;9.26;78.32
55540;BME280;41384;51.418;7.286;2023-05-24T02:59:48;100533.47;;;9.17;78.99
55540;BME280;41384;51.418;7.286;2023-05-24T03:02:14;100534.63;;;8.99;79.03
55540;BME280;41384;51.418;7.286;2023-05-24T03:04:39;100538.66;;;9.10;77.70
55540;BME280;41384;51.418;7.286;2023-05-24T03:07:04;100541.50;;;9.00;78.24
55540;BME280;41384;51.418;7.286;2023-05-24T03:09:30;100540.06;;;8.98;78.20
55540;BME280;41384;51.418;7.286;2023-05-24T03:11:55;100540.13;;;9.28;77.83
55540;BME280;41384;51.418;7.286;2023-05-24T03:14:20;100541.25;;;9.33;76.45
55540;BME280;41384;51.418;7.286;2023-05-24T03:16:48;100539.38;;;9.19;77.86
55540;BME280;41384;51.418;7.286;2023-05-24T03:19:14;100545.28;;;9.06;79.31
55540;BME280;41384;51.418;7.286;2023-05-24T03:21:41;100541.56;;;9.15;79.07
55540;BME280;41384;51.418;7.286;2023-05-24T03:24:06;100538.00;;;9.08;77.63
55540;BME280;41384;51.418;7.286;2023-05-24T03:26:33;100542.88;;;8.96;78.82
55540;BME280;41384;51.418;7.286;2023-05-24T03:28:58;100534.91;;;9.04;77.88
55540;BME280;41384;51.418;7.286;2023-05-24T03:31:24;100537.72;;;9.18;77.05
55540;BME280;41384;51.418;7.286;2023-05-24T03:33:50;100529.84;;;9.18;78.75
55540;BME280;41384;51.418;7.286;2023-05-24T03:36:16;100538.13;;;9.30;77.65
55540;BME280;41384;51.418;7.286;2023-05-24T03:38:41;100536.13;;;9.32;76.86
55540;BME280;41384;51.418;7.286;2023-05-24T03:41:07;100543.47;;;9.22;77.86
55540;BME280;41384;51.418;7.286;2023-05-24T03:43:32;100542.69;;;9.36;77.55
55540;BME280;41384;51.418;7.286;2023-05-24T03:45:57;100538.59;;;9.33;77.66
55540;BME280;41384;51.418;7.286;2023-05-24T03:48:22;100549.78;;;9.36;76.22
55540;BME280;41384;51.418;7.286;2023-05-24T03:50:48;100554.81;;;9.22;77.58
55540;BME280;41384;51.418;7.286;2023-05-24T03:53:13;100549.41;;;9.00;78.01
55540;BME280;41384;51.418;7.286;2023-05-24T03:55:39;100558.16;;;9.01;79.85
55540;BME280;41384;51.418;7.286;2023-05-24T03:58:04;100562.88;;;8.82;79.70
55540;BME280;41384;51.418;7.286;2023-05-24T04:00:29;100564.22;;;9.01;80.21
55540;BME280;41384;51.418;7.286;2023-05-24T04:02:55;100566.00;;;8.86;80.64
55540;BME280;41384;51.418;7.286;2023-05-24T04:05:20;100568.63;;;9.09;79.23
55540;BME280;41384;51.418;7.286;2023-05-24T04:07:46;100567.41;;;9.12;78.80
55540;BME280;41384;51.418;7.286;2023-05-24T04:10:11;100567.63;;;9.25;79.50
55540;BME280;41384;51.418;7.286;2023-05-24T04:12:36;100572.50;;;9.37;79.06
55540;BME280;41384;51.418;7.286;2023-05-24T04:15:02;100579.59;;;9.51;79.12
55540;BME280;41384;51.418;7.286;2023-05-24T04:17:27;100577.94;;;9.65;77.76
55540;BME280;41384;51.418;7.286;2023-05-24T04:19:56;100569.06;;;9.81;77.61
55540;BME280;41384;51.418;7.286;2023-05-24T04:22:21;100578.88;;;9.87;77.11
55540;BME280;41384;51.418;7.286;2023-05-24T04:24:47;100576.69;;;9.76;77.43
55540;BME280;41384;51.418;7.286;2023-05-24T04:27:13;100576.78;;;9.83;76.55
55540;BME280;41384;51.418;7.286;2023-05-24T04:29:39;100576.97;;;9.81;77.63
55540;BME280;41384;51.418;7.286;2023-05-24T04:32:05;100573.69;;;9.79;77.07
55540;BME280;41384;51.418;7.286;2023-05-24T04:34:30;100572.41;;;10.05;76.86
55540;BME280;41384;51.418;7.286;2023-05-24T04:37:00;100572.03;;;10.08;75.99
55540;BME280;41384;51.418;7.286;2023-05-24T04:39:29;100560.66;;;10.22;75.04
55540;BME280;41384;51.418;7.286;2023-05-24T04:41:54;100576.06;;;9.89;76.18
55540;BME280;41384;51.418;7.286;2023-05-24T04:44:22;100576.94;;;10.11;76.34
55540;BME280;41384;51.418;7.286;2023-05-24T04:46:48;100583.66;;;10.29;74.91
55540;BME280;41384;51.418;7.286;2023-05-24T04:49:13;100592.75;;;10.26;74.53
55540;BME280;41384;51.418;7.286;2023-05-24T04:51:38;100579.44;;;10.49;73.97
55540;BME280;41384;51.418;7.286;2023-05-24T04:54:04;100581.34;;;10.56;73.53
55540;BME280;41384;51.418;7.286;2023-05-24T04:56:36;100588.25;;;10.57;73.19
55540;BME280;41384;51.418;7.286;2023-05-24T04:59:05;100598.97;;;10.55;73.67
55540;BME280;41384;51.418;7.286;2023-05-24T05:01:31;100594.91;;;10.37;74.58
55540;BME280;41384;51.418;7.286;2023-05-24T05:03:57;100592.69;;;10.19;75.11
55540;BME280;41384;51.418;7.286;2023-05-24T05:06:23;100589.84;;;10.21;75.80
55540;BME280;41384;51.418;7.286;2023-05-24T05:08:49;100593.75;;;10.25;75.55
55540;BME280;41384;51.418;7.286;2023-05-24T05:11:14;100593.13;;;10.23;76.78
55540;BME280;41384;51.418;7.286;2023-05-24T05:13:39;100594.03;;;10.67;74.66
55540;BME280;41384;51.418;7.286;2023-05-24T05:16:05;100590.53;;;10.82;73.61
55540;BME280;41384;51.418;7.286;2023-05-24T05:18:30;100586.56;;;10.92;73.23
55540;BME280;41384;51.418;7.286;2023-05-24T05:20:56;100588.25;;;11.00;72.89
55540;BME280;41384;51.418;7.286;2023-05-24T05:23:21;100590.50;;;11.03;73.25
55540;BME280;41384;51.418;7.286;2023-05-24T05:25:46;100601.03;;;10.97;73.63
55540;BME280;41384;51.418;7.286;2023-05-24T05:28:11;100600.72;;;10.85;75.43
55540;BME280;41384;51.418;7.286;2023-05-24T05:30:37;100597.91;;;10.86;75.82
55540;BME280;41384;51.418;7.286;2023-05-24T05:33:02;100599.94;;;10.69;76.45
55540;BME280;41384;51.418;7.286;2023-05-24T05:35:30;100604.47;;;10.75;76.95
55540;BME280;41384;51.418;7.286;2023-05-24T05:37:55;100600.03;;;10.98;76.35
55540;BME280;41384;51.418;7.286;2023-05-24T05:40:20;100589.19;;;11.14;75.58
55540;BME280;41384;51.418;7.286;2023-05-24T05:42:46;100586.25;;;11.31;74.64
55540;BME280;41384;51.418;7.286;2023-05-24T05:45:11;100578.09;;;11.26;74.43
55540;BME280;41384;51.418;7.286;2023-05-24T05:47:36;100579.59;;;11.06;76.15
55540;BME280;41384;51.418;7.286;2023-05-24T05:50:02;100573.00;;;11.24;74.99
55540;BME280;41384;51.418;7.286;2023-05-24T05:52:27;100576.84;;;11.21;75.71
55540;BME280;41384;51.418;7.286;2023-05-24T05:54:52;100575.44;;;11.26;75.38
55540;BME280;41384;51.418;7.286;2023-05-24T05:57:18;100590.53;;;11.32;75.76
55540;BME280;41384;51.418;7.286;2023-05-24T05:59:48;100589.16;;;11.36;75.73
55540;BME280;41384;51.418;7.286;2023-05-24T06:02:13;100593.88;;;11.41;76.80
55540;BME280;41384;51.418;7.286;2023-05-24T06:04:38;100596.97;;;11.22;76.22
55540;BME280;41384;51.418;7.286;2023-05-24T06:07:04;100587.81;;;11.47;75.33
55540;BME280;41384;51.418;7.286;2023-05-24T06:09:29;100601.66;;;11.49;76.13
55540;BME280;41384;51.418;7.286;2023-05-24T06:11:55;100596.81;;;11.52;76.12
55540;BME280;41384;51.418;7.286;2023-05-24T06:14:20;100589.50;;;11.55;76.04
55540;BME280;41384;51.418;7.286;2023-05-24T06:16:46;100578.38;;;11.66;75.73
55540;BME280;41384;51.418;7.286;2023-05-24T06:19:12;100584.97;;;11.83;75.80
55540;BME280;41384;51.418;7.286;2023-05-24T06:21:37;100589.44;;;11.83;75.16
55540;BME280;41384;51.418;7.286;2023-05-24T06:24:05;100597.38;;;11.48;76.14
55540;BME280;41384;51.418;7.286;2023-05-24T06:26:34;100595.34;;;11.50;75.54
55540;BME280;41384;51.418;7.286;2023-05-24T06:29:00;100594.78;;;11.55;75.48
55540;BME280;41384;51.418;7.286;2023-05-24T06:31:26;100592.41;;;11.66;74.92
55540;BME280;41384;51.418;7.286;2023-05-24T06:33:51;100594.47;;;11.71;74.69
55540;BME280;41384;51.418;7.286;2023-05-24T06:36:16;100602.19;;;11.73;74.68
55540;BME280;41384;51.418;7.286;2023-05-24T06:38:41;100592.75;;;11.92;73.71
55540;BME280;41384;51.418;7.286;2023-05-24T06:41:07;100595.59;;;11.55;74.87
55540;BME280;41384;51.418;7.286;2023-05-24T06:43:32;100603.06;;;11.80;74.43
55540;BME280;41384;51.418;7.286;2023-05-24T06:45:58;100604.56;;;11.96;73.64
55540;BME280;41384;51.418;7.286;2023-05-24T06:48:23;100611.81;;;12.09;74.11
55540;BME280;41384;51.418;7.286;2023-05-24T06:50:49;100614.88;;;12.13;73.90
55540;BME280;41384;51.418;7.286;2023-05-24T06:53:14;100613.28;;;11.90;74.43
55540;BME280;41384;51.418;7.286;2023-05-24T06:55:39;100605.72;;;12.15;74.40
55540;BME280;41384;51.418;7.286;2023-05-24T06:58:05;100605.59;;;12.37;73.24
55540;BME280;41384;51.418;7.286;2023-05-24T07:00:31;100607.00;;;12.33;73.93
55540;BME280;41384;51.418;7.286;2023-05-24T07:02:56;100600.34;;;12.44;73.74
55540;BME280;41384;51.418;7.286;2023-05-24T07:05:22;100594.94;;;12.17;76.10
55540;BME280;41384;51.418;7.286;2023-05-24T07:07:47;100603.97;;;12.36;73.99
55540;BME280;41384;51.418;7.286;2023-05-24T07:10:12;100601.84;;;12.11;72.88
55540;BME280;41384;51.418;7.286;2023-05-24T07:12:38;100604.56;;;12.31;72.34
55540;BME280;41384;51.418;7.286;2023-05-24T07:15:04;100603.94;;;12.29;72.51
55540;BME280;41384;51.418;7.286;2023-05-24T07:17:29;100598.09;;;12.47;71.41
55540;BME280;41384;51.418;7.286;2023-05-24T07:19:55;100607.63;;;12.35;72.01
55540;BME280;41384;51.418;7.286;2023-05-24T07:22:21;100604.22;;;12.48;71.59
55540;BME280;41384;51.418;7.286;2023-05-24T07:24:48;100602.19;;;12.57;71.02
55540;BME280;41384;51.418;7.286;2023-05-24T07:27:13;100607.44;;;12.43;70.97
55540;BME280;41384;51.418;7.286;2023-05-24T07:29:39;100595.22;;;12.42;71.33
55540;BME280;41384;51.418;7.286;2023-05-24T07:32:04;100601.09;;;12.31;71.55
55540;BME280;41384;51.418;7.286;2023-05-24T07:34:29;100604.97;;;12.35;70.06
55540;BME280;41384;51.418;7.286;2023-05-24T07:36:55;100608.59;;;12.20;70.45
55540;BME280;41384;51.418;7.286;2023-05-24T07:39:24;100611.25;;;12.20;71.77
55540;BME280;41384;51.418;7.286;2023-05-24T07:41:51;100613.75;;;12.42;70.66
55540;BME280;41384;51.418;7.286;2023-05-24T07:44:17;100614.84;;;12.61;71.19
55540;BME280;41384;51.418;7.286;2023-05-24T07:46:42;100610.78;;;12.65;70.18
55540;BME280;41384;51.418;7.286;2023-05-24T07:49:08;100608.16;;;12.79;70.47
55540;BME280;41384;51.418;7.286;2023-05-24T07:51:33;100611.84;;;12.84;69.17
55540;BME280;41384;51.418;7.286;2023-05-24T07:53:58;100614.25;;;12.79;69.15
55540;BME280;41384;51.418;7.286;2023-05-24T07:56:24;100612.56;;;12.45;69.46
55540;BME280;41384;51.418;7.286;2023-05-24T07:58:50;100618.88;;;12.50;68.68
55540;BME280;41384;51.418;7.286;2023-05-24T08:01:15;100607.88;;;12.53;68.43
55540;BME280;41384;51.418;7.286;2023-05-24T08:03:42;100619.19;;;12.27;67.17
55540;BME280;41384;51.418;7.286;2023-05-24T08:06:08;100617.84;;;12.45;67.73
55540;BME280;41384;51.418;7.286;2023-05-24T08:08:34;100606.69;;;12.56;66.44
55540;BME280;41384;51.418;7.286;2023-05-24T08:11:00;100613.78;;;12.55;65.99
55540;BME280;41384;51.418;7.286;2023-05-24T08:13:25;100607.94;;;12.80;66.02
55540;BME280;41384;51.418;7.286;2023-05-24T08:15:51;100603.91;;;12.84;64.81
55540;BME280;41384;51.418;7.286;2023-05-24T08:18:16;100610.03;;;12.92;64.00
55540;BME280;41384;51.418;7.286;2023-05-24T08:20:41;100605.34;;;12.94;64.46
55540;BME280;41384;51.418;7.286;2023-05-24T08:23:07;100603.88;;;12.78;63.95
55540;BME280;41384;51.418;7.286;2023-05-24T08:25:32;100606.34;;;12.93;63.81
55540;BME280;41384;51.418;7.286;2023-05-24T08:27:57;100600.66;;;12.96;63.37
55540;BME280;41384;51.418;7.286;2023-05-24T08:30:22;100602.03;;;12.78;62.59
55540;BME280;41384;51.418;7.286;2023-05-24T08:32:49;100609.63;;;12.95;62.61
55540;BME280;41384;51.418;7.286;2023-05-24T08:35:15;100612.88;;;12.83;62.97
55540;BME280;41384;51.418;7.286;2023-05-24T08:37:40;100611.84;;;13.05;64.56
55540;BME280;41384;51.418;7.286;2023-05-24T08:40:06;100613.06;;;12.95;63.54
55540;BME280;41384;51.418;7.286;2023-05-24T08:42:36;100613.06;;;13.09;64.04
55540;BME280;41384;51.418;7.286;2023-05-24T08:45:13;100614.09;;;13.01;64.45
55540;BME280;41384;51.418;7.286;2023-05-24T08:47:39;100620.56;;;12.78;63.98
55540;BME280;41384;51.418;7.286;2023-05-24T08:50:05;100606.34;;;12.99;64.90
55540;BME280;41384;51.418;7.286;2023-05-24T08:52:31;100614.28;;;12.86;64.51
55540;BME280;41384;51.418;7.286;2023-05-24T08:55:00;100616.53;;;12.82;64.52
55540;BME280;41384;51.418;7.286;2023-05-24T08:57:27;100614.25;;;12.79;64.17
55540;BME280;41384;51.418;7.286;2023-05-24T08:59:52;100614.06;;;12.81;64.31
55540;BME280;41384;51.418;7.286;2023-05-24T09:02:22;100617.75;;;13.07;64.24
55540;BME280;41384;51.418;7.286;2023-05-24T09:04:48;100613.28;;;12.94;64.23
55540;BME280;41384;51.418;7.286;2023-05-24T09:07:17;100620.44;;;13.13;64.01
55540;BME280;41384;51.418;7.286;2023-05-24T09:09:50;100613.28;;;13.21;64.24
55540;BME280;41384;51.418;7.286;2023-05-24T09:12:19;100618.38;;;13.16;63.58
55540;BME280;41384;51.418;7.286;2023-05-24T09:14:46;100611.44;;;13.28;62.96
55540;BME280;41384;51.418;7.286;2023-05-24T09:17:12;100612.06;;;13.37;62.86
55540;BME280;41384;51.418;7.286;2023-05-24T09:19:43;100614.31;;;13.40;63.02
55540;BME280;41384;51.418;7.286;2023-05-24T09:22:10;100614.72;;;13.17;63.28
55540;BME280;41384;51.418;7.286;2023-05-24T09:24:40;100605.53;;;13.19;62.24
55540;BME280;41384;51.418;7.286;2023-05-24T09:27:06;100597.81;;;13.45;63.05
55540;BME280;41384;51.418;7.286;2023-05-24T09:29:34;100613.09;;;13.36;62.37
55540;BME280;41384;51.418;7.286;2023-05-24T09:32:00;100602.06;;;13.39;61.17
55540;BME280;41384;51.418;7.286;2023-05-24T09:34:26;100609.03;;;13.47;61.78
55540;BME280;41384;51.418;7.286;2023-05-24T09:36:51;100611.47;;;13.62;62.38
55540;BME280;41384;51.418;7.286;2023-05-24T09:39:18;100594.50;;;13.22;62.16
55540;BME280;41384;51.418;7.286;2023-05-24T09:41:51;100599.44;;;13.52;61.49
55540;BME280;41384;51.418;7.286;2023-05-24T09:44:23;100600.44;;;13.58;60.29
55540;BME280;41384;51.418;7.286;2023-05-24T09:46:48;100593.69;;;13.35;59.96
55540;BME280;41384;51.418;7.286;2023-05-24T09:49:14;100600.25;;;13.46;61.17
55540;BME280;41384;51.418;7.286;2023-05-24T09:51:39;100604.94;;;13.31;61.56
55540;BME280;41384;51.418;7.286;2023-05-24T09:54:04;100601.88;;;13.34;61.76
55540;BME280;41384;51.418;7.286;2023-05-24T09:56:32;100603.94;;;13.45;63.43
55540;BME280;41384;51.418;7.286;2023-05-24T09:58:57;100605.34;;;13.54;61.85
55540;BME280;41384;51.418;7.286;2023-05-24T10:01:23;100600.84;;;13.28;61.22
55540;BME280;41384;51.418;7.286;2023-05-24T10:03:53;100603.50;;;13.28;61.80
55540;BME280;41384;51.418;7.286;2023-05-24T10:06:19;100602.50;;;13.49;61.74
55540;BME280;41384;51.418;7.286;2023-05-24T10:08:46;100604.34;;;13.42;61.78
55540;BME280;41384;51.418;7.286;2023-05-24T10:11:12;100602.28;;;13.31;60.91
55540;BME280;41384;51.418;7.286;2023-05-24T10:13:38;100598.19;;;13.41;60.54
55540;BME280;41384;51.418;7.286;2023-05-24T10:16:03;100593.31;;;13.52;60.06
55540;BME280;41384;51.418;7.286;2023-05-24T10:18:29;100605.50;;;13.66;60.40
55540;BME280;41384;51.418;7.286;2023-05-24T10:20:55;100602.25;;;13.64;60.67
55540;BME280;41384;51.418;7.286;2023-05-24T10:23:23;100607.56;;;13.71;59.85
55540;BME280;41384;51.418;7.286;2023-05-24T10:25:55;100600.41;;;13.78;59.93
55540;BME280;41384;51.418;7.286;2023-05-24T10:28:25;100615.72;;;13.69;60.42
55540;BME280;41384;51.418;7.286;2023-05-24T10:31:39;100604.25;;;13.89;61.18
55540;BME280;41384;51.418;7.286;2023-05-24T10:33:59;100609.16;;;13.85;59.66
55540;BME280;41384;51.418;7.286;2023-05-24T10:36:27;100609.22;;;13.59;58.71
55540;BME280;41384;51.418;7.286;2023-05-24T10:38:53;100605.94;;;13.77;59.06
55540;BME280;41384;51.418;7.286;2023-05-24T10:41:19;100607.75;;;13.76;58.19
55540;BME280;41384;51.418;7.286;2023-05-24T10:43:45;100608.38;;;13.65;59.22
55540;BME280;41384;51.418;7.286;2023-05-24T10:46:13;100613.66;;;13.85;59.75
55540;BME280;41384;51.418;7.286;2023-05-24T10:48:40;100605.31;;;13.75;58.80
55540;BME280;41384;51.418;7.286;2023-05-24T10:53:56;100610.00;;;13.86;60.62
55540;BME280;41384;51.418;7.286;2023-05-24T10:56:21;100608.13;;;13.93;58.92
55540;BME280;41384;51.418;7.286;2023-05-24T11:01:32;100605.19;;;14.08;59.93
55540;BME280;41384;51.418;7.286;2023-05-24T11:04:08;100605.84;;;14.04;59.03
55540;BME280;41384;51.418;7.286;2023-05-24T11:06:56;100600.59;;;13.90;58.45
55540;BME280;41384;51.418;7.286;2023-05-24T11:09:23;100601.94;;;14.06;59.47
55540;BME280;41384;51.418;7.286;2023-05-24T11:11:59;100595.22;;;14.04;57.93
55540;BME280;41384;51.418;7.286;2023-05-24T11:14:27;100602.09;;;14.25;57.46
55540;BME280;41384;51.418;7.286;2023-05-24T11:16:53;100589.59;;;14.32;57.15
55540;BME280;41384;51.418;7.286;2023-05-24T11:19:21;100592.25;;;14.32;56.45
55540;BME280;41384;51.418;7.286;2023-05-24T11:21:55;100598.19;;;14.27;56.33
55540;BME280;41384;51.418;7.286;2023-05-24T11:24:23;100592.94;;;14.14;55.69
55540;BME280;41384;51.418;7.286;2023-05-24T11:26:49;100587.38;;;14.22;55.71
55540;BME280;41384;51.418;7.286;2023-05-24T11:29:15;100583.25;;;14.33;56.10
55540;BME280;41384;51.418;7.286;2023-05-24T11:34:15;100588.59;;;14.26;55.85
55540;BME280;41384;51.418;7.286;2023-05-24T11:36:41;100589.47;;;14.13;56.03
55540;BME280;41384;51.418;7.286;2023-05-24T11:39:07;100588.94;;;13.84;56.33
55540;BME280;41384;51.418;7.286;2023-05-24T11:41:37;100594.84;;;13.93;57.44
55540;BME280;41384;51.418;7.286;2023-05-24T11:44:03;100596.31;;;13.89;58.50
55540;BME280;41384;51.418;7.286;2023-05-24T11:46:28;100593.84;;;13.88;58.40
55540;BME280;41384;51.418;7.286;2023-05-24T11:48:56;100587.69;;;13.94;58.39
55540;BME280;41384;51.418;7.286;2023-05-24T11:51:39;100593.03;;;13.87;58.10
55540;BME280;41384;51.418;7.286;2023-05-24T11:54:04;100593.03;;;13.87;57.89
55540;BME280;41384;51.418;7.286;2023-05-24T11:56:30;100585.50;;;13.77;58.39
55540;BME280;41384;51.418;7.286;2023-05-24T11:59:14;100595.91;;;13.79;58.47
55540;BME280;41384;51.418;7.286;2023-05-24T12:01:40;100593.72;;;13.55;59.18
55540;BME280;41384;51.418;7.286;2023-05-24T12:04:05;100594.94;;;13.60;59.62
55540;BME280;41384;51.418;7.286;2023-05-24T12:06:35;100591.84;;;13.76;60.70
55540;BME280;41384;51.418;7.286;2023-05-24T12:09:01;100590.19;;;13.82;60.63
55540;BME280;41384;51.418;7.286;2023-05-24T12:11:29;100599.78;;;13.76;59.80
55540;BME280;41384;51.418;7.286;2023-05-24T12:13:56;100595.91;;;13.79;60.35
55540;BME280;41384;51.418;7.286;2023-05-24T12:16:22;100592.59;;;13.97;60.46
55540;BME280;41384;51.418;7.286;2023-05-24T12:18:47;100600.81;;;13.82;59.46
55540;BME280;41384;51.418;7.286;2023-05-24T12:21:12;100595.09;;;13.85;59.94
55540;BME280;41384;51.418;7.286;2023-05-24T12:23:38;100592.22;;;13.86;59.66
55540;BME280;41384;51.418;7.286;2023-05-24T12:26:03;100589.97;;;13.90;60.00
55540;BME280;41384;51.418;7.286;2023-05-24T12:28:36;100593.66;;;13.89;59.91
55540;BME280;41384;51.418;7.286;2023-05-24T12:31:04;100597.28;;;14.01;59.86
55540;BME280;41384;51.418;7.286;2023-05-24T12:33:30;100593.97;;;14.06;60.32
55540;BME280;41384;51.418;7.286;2023-05-24T12:35:55;100594.56;;;14.15;60.26
55540;BME280;41384;51.418;7.286;2023-05-24T12:38:23;100599.69;;;14.17;59.32
55540;BME280;41384;51.418;7.286;2023-05-24T12:40:52;100592.50;;;14.17;58.64
55540;BME280;41384;51.418;7.286;2023-05-24T12:43:19;100592.16;;;14.07;58.74
55540;BME280;41384;51.418;7.286;2023-05-24T12:45:44;100596.63;;;14.13;59.31
55540;BME280;41384;51.418;7.286;2023-05-24T12:48:09;100598.00;;;14.22;58.24
55540;BME280;41384;51.418;7.286;2023-05-24T12:50:35;100594.06;;;14.38;58.92
55540;BME280;41384;51.418;7.286;2023-05-24T12:53:01;100598.28;;;14.46;59.29
55540;BME280;41384;51.418;7.286;2023-05-24T12:55:26;100587.31;;;14.36;58.77
55540;BME280;41384;51.418;7.286;2023-05-24T12:57:53;100582.34;;;14.46;58.51
55540;BME280;41384;51.418;7.286;2023-05-24T13:00:23;100589.78;;;14.30;59.07
55540;BME280;41384;51.418;7.286;2023-05-24T13:02:50;100591.22;;;14.33;59.32
55540;BME280;41384;51.418;7.286;2023-05-24T13:05:18;100591.59;;;14.37;59.22
55540;BME280;41384;51.418;7.286;2023-05-24T13:07:44;100589.00;;;14.23;60.19
55540;BME280;41384;51.418;7.286;2023-05-24T13:10:10;100590.47;;;14.19;60.27
55540;BME280;41384;51.418;7.286;2023-05-24T13:12:35;100589.66;;;14.19;59.71
55540;BME280;41384;51.418;7.286;2023-05-24T13:15:01;100599.47;;;14.11;60.76
55540;BME280;41384;51.418;7.286;2023-05-24T13:17:26;100598.00;;;14.22;60.81